This is the latest recevied weather packets stored in our database for station/object SQ9MHX-13. If no packets are shown the sender has not sent any weather packets the latest 1 day(s).
| Time | Temp. | Humidity | Pressure | Rain* | Wind** | Luminosity | Snow |
|---|---|---|---|---|---|---|---|
| 1778115273 | 17.22° C | 62% | 954.3 hPa | - | 0 m/s | - | - |
| 1778114974 | 17.22° C | 63% | 954.7 hPa | - | 0 m/s | - | - |
| 1778114675 | 16.11° C | 65% | 955.6 hPa | - | 0 m/s | - | - |
| 1778114377 | 15° C | 69% | 956.3 hPa | - | 0 m/s | - | - |
| 1778114078 | 15° C | 71% | 957 hPa | - | 0 m/s | - | - |
| 1778113481 | 15° C | 76% | 957 hPa | - | 0 m/s | - | - |
| 1778113182 | 15° C | 72% | 956.4 hPa | - | 0 m/s | - | - |
| 1778112585 | 16.11° C | 67% | 955.7 hPa | - | 0 m/s | - | - |
| 1778111689 | 15° C | 76% | 958.3 hPa | - | 0 m/s | - | - |
| 1778111092 | 12.78° C | 86% | 959.3 hPa | - | 0 m/s | - | - |
| 1778110495 | 12.78° C | 87% | 959.2 hPa | - | 0 m/s | - | - |
| 1778109599 | 12.78° C | 86% | 959.4 hPa | - | 0 m/s | - | - |
| 1778108405 | 13.89° C | 85% | 959 hPa | - | 0 m/s | - | - |
| 1778105419 | 15° C | 81% | 957.4 hPa | - | 0 m/s | - | - |
| 1778104523 | 15° C | 80% | 957.2 hPa | - | 0 m/s | - | - |
| 1778103627 | 15° C | 80% | 957.4 hPa | - | 0 m/s | - | - |
| 1778101835 | 15° C | 79% | 956.9 hPa | - | 0 m/s | - | - |
| 1778100939 | 15° C | 78% | 956.6 hPa | - | 0 m/s | - | - |
| 1778100043 | 15° C | 77% | 956.8 hPa | - | 0 m/s | - | - |
| 1778099147 | 15° C | 76% | 956.7 hPa | - | 0 m/s | - | - |
| 1778098251 | 15° C | 77% | 957.1 hPa | - | 0 m/s | - | - |
| 1778097654 | 15° C | 76% | 956.7 hPa | - | 0 m/s | - | - |
| 1778097355 | 15° C | 75% | 956.6 hPa | - | 0 m/s | - | - |
| 1778096459 | 16.11° C | 71% | 956.4 hPa | - | 0 m/s | - | - |
| 1778095862 | 16.11° C | 71% | 956 hPa | - | 0 m/s | - | - |
* Rain since midnight (hover to see other rain measurements)
** Current wind speed in m/s (hover to see current wind gust speed)